sensor_id;sensor_type;location;lat;lon;timestamp;P1;durP1;ratioP1;P2;durP2;ratioP2
28960;SDS011;16068;42.896;20.868;2022-11-23T00:02:13;4.60;;;2.03;;
28960;SDS011;16068;42.896;20.868;2022-11-23T00:04:59;4.55;;;2.08;;
28960;SDS011;16068;42.896;20.868;2022-11-23T00:07:45;3.88;;;1.80;;
28960;SDS011;16068;42.896;20.868;2022-11-23T00:10:31;3.80;;;2.00;;
28960;SDS011;16068;42.896;20.868;2022-11-23T00:13:17;5.72;;;1.90;;
28960;SDS011;16068;42.896;20.868;2022-11-23T00:16:07;6.05;;;1.70;;
28960;SDS011;16068;42.896;20.868;2022-11-23T00:18:55;4.53;;;1.77;;
28960;SDS011;16068;42.896;20.868;2022-11-23T00:21:45;2.58;;;1.25;;
28960;SDS011;16068;42.896;20.868;2022-11-23T00:24:31;1.83;;;1.02;;
28960;SDS011;16068;42.896;20.868;2022-11-23T00:27:17;1.67;;;1.13;;
28960;SDS011;16068;42.896;20.868;2022-11-23T00:30:04;2.00;;;1.20;;
28960;SDS011;16068;42.896;20.868;2022-11-23T00:32:50;1.80;;;1.20;;
28960;SDS011;16068;42.896;20.868;2022-11-23T00:35:37;2.70;;;1.20;;
28960;SDS011;16068;42.896;20.868;2022-11-23T00:38:22;3.10;;;1.33;;
28960;SDS011;16068;42.896;20.868;2022-11-23T00:41:09;3.58;;;1.33;;
28960;SDS011;16068;42.896;20.868;2022-11-23T00:43:57;3.10;;;1.85;;
28960;SDS011;16068;42.896;20.868;2022-11-23T00:46:43;5.72;;;2.58;;
28960;SDS011;16068;42.896;20.868;2022-11-23T00:49:29;5.15;;;2.83;;
28960;SDS011;16068;42.896;20.868;2022-11-23T00:52:15;6.47;;;2.55;;
28960;SDS011;16068;42.896;20.868;2022-11-23T00:55:01;5.00;;;2.72;;
28960;SDS011;16068;42.896;20.868;2022-11-23T00:57:47;3.80;;;2.63;;
28960;SDS011;16068;42.896;20.868;2022-11-23T01:00:33;5.20;;;2.50;;
28960;SDS011;16068;42.896;20.868;2022-11-23T01:03:20;3.60;;;2.15;;
28960;SDS011;16068;42.896;20.868;2022-11-23T01:06:10;2.15;;;1.40;;
28960;SDS011;16068;42.896;20.868;2022-11-23T01:09:23;2.95;;;1.50;;
28960;SDS011;16068;42.896;20.868;2022-11-23T01:12:11;2.60;;;1.30;;
28960;SDS011;16068;42.896;20.868;2022-11-23T01:14:56;6.53;;;1.20;;
28960;SDS011;16068;42.896;20.868;2022-11-23T01:17:42;2.60;;;1.60;;
28960;SDS011;16068;42.896;20.868;2022-11-23T01:20:28;3.33;;;1.50;;
28960;SDS011;16068;42.896;20.868;2022-11-23T01:23:14;6.43;;;1.30;;
28960;SDS011;16068;42.896;20.868;2022-11-23T01:26:05;3.20;;;1.27;;
28960;SDS011;16068;42.896;20.868;2022-11-23T01:28:51;5.43;;;1.20;;
28960;SDS011;16068;42.896;20.868;2022-11-23T01:31:41;6.38;;;1.48;;
28960;SDS011;16068;42.896;20.868;2022-11-23T01:34:34;7.57;;;1.40;;
28960;SDS011;16068;42.896;20.868;2022-11-23T01:37:20;6.38;;;1.50;;
28960;SDS011;16068;42.896;20.868;2022-11-23T01:40:06;4.90;;;1.48;;
28960;SDS011;16068;42.896;20.868;2022-11-23T01:42:54;3.15;;;1.02;;
28960;SDS011;16068;42.896;20.868;2022-11-23T01:45:43;2.75;;;1.17;;
28960;SDS011;16068;42.896;20.868;2022-11-23T01:51:45;3.97;;;0.98;;
28960;SDS011;16068;42.896;20.868;2022-11-23T01:54:38;2.85;;;1.10;;
28960;SDS011;16068;42.896;20.868;2022-11-23T01:57:34;5.40;;;1.30;;
28960;SDS011;16068;42.896;20.868;2022-11-23T02:00:25;10.48;;;3.97;;
28960;SDS011;16068;42.896;20.868;2022-11-23T02:03:11;7.22;;;2.00;;
28960;SDS011;16068;42.896;20.868;2022-11-23T02:06:00;7.95;;;1.58;;
28960;SDS011;16068;42.896;20.868;2022-11-23T02:08:47;5.18;;;1.80;;
28960;SDS011;16068;42.896;20.868;2022-11-23T02:11:33;6.05;;;2.10;;
28960;SDS011;16068;42.896;20.868;2022-11-23T02:14:19;6.28;;;1.65;;
28960;SDS011;16068;42.896;20.868;2022-11-23T02:17:11;6.82;;;1.83;;
28960;SDS011;16068;42.896;20.868;2022-11-23T02:20:11;3.30;;;1.30;;
28960;SDS011;16068;42.896;20.868;2022-11-23T02:26:14;2.20;;;1.08;;
28960;SDS011;16068;42.896;20.868;2022-11-23T02:29:13;2.95;;;0.95;;
28960;SDS011;16068;42.896;20.868;2022-11-23T02:32:03;1.75;;;1.20;;
28960;SDS011;16068;42.896;20.868;2022-11-23T02:34:49;3.53;;;1.65;;
28960;SDS011;16068;42.896;20.868;2022-11-23T02:37:36;8.43;;;2.13;;
28960;SDS011;16068;42.896;20.868;2022-11-23T02:40:28;2.10;;;1.45;;
28960;SDS011;16068;42.896;20.868;2022-11-23T02:46:05;3.53;;;1.80;;
28960;SDS011;16068;42.896;20.868;2022-11-23T02:48:53;4.07;;;2.25;;
28960;SDS011;16068;42.896;20.868;2022-11-23T02:51:39;4.30;;;1.98;;
28960;SDS011;16068;42.896;20.868;2022-11-23T02:54:27;4.05;;;2.13;;
28960;SDS011;16068;42.896;20.868;2022-11-23T02:57:14;2.50;;;2.00;;
28960;SDS011;16068;42.896;20.868;2022-11-23T03:00:04;3.42;;;1.92;;
28960;SDS011;16068;42.896;20.868;2022-11-23T03:02:50;4.50;;;1.90;;
28960;SDS011;16068;42.896;20.868;2022-11-23T03:05:36;7.55;;;2.80;;
28960;SDS011;16068;42.896;20.868;2022-11-23T03:08:23;4.25;;;2.33;;
28960;SDS011;16068;42.896;20.868;2022-11-23T03:11:10;4.78;;;2.83;;
28960;SDS011;16068;42.896;20.868;2022-11-23T03:13:56;4.22;;;2.50;;
28960;SDS011;16068;42.896;20.868;2022-11-23T03:16:44;6.07;;;2.63;;
28960;SDS011;16068;42.896;20.868;2022-11-23T03:19:33;10.45;;;3.20;;
28960;SDS011;16068;42.896;20.868;2022-11-23T03:22:21;7.45;;;4.30;;
28960;SDS011;16068;42.896;20.868;2022-11-23T03:25:09;8.45;;;4.45;;
28960;SDS011;16068;42.896;20.868;2022-11-23T03:27:56;16.30;;;4.45;;
28960;SDS011;16068;42.896;20.868;2022-11-23T03:30:42;12.68;;;4.45;;
28960;SDS011;16068;42.896;20.868;2022-11-23T03:33:28;9.55;;;3.63;;
28960;SDS011;16068;42.896;20.868;2022-11-23T03:36:15;13.45;;;3.40;;
28960;SDS011;16068;42.896;20.868;2022-11-23T03:39:04;15.95;;;4.22;;
28960;SDS011;16068;42.896;20.868;2022-11-23T03:42:09;7.07;;;2.60;;
28960;SDS011;16068;42.896;20.868;2022-11-23T03:44:56;6.10;;;2.85;;
28960;SDS011;16068;42.896;20.868;2022-11-23T03:47:42;3.25;;;2.00;;
28960;SDS011;16068;42.896;20.868;2022-11-23T03:50:31;10.00;;;2.17;;
28960;SDS011;16068;42.896;20.868;2022-11-23T03:53:17;13.07;;;3.05;;
28960;SDS011;16068;42.896;20.868;2022-11-23T03:56:03;5.30;;;2.50;;
28960;SDS011;16068;42.896;20.868;2022-11-23T03:58:54;7.15;;;2.92;;
28960;SDS011;16068;42.896;20.868;2022-11-23T04:01:40;7.43;;;2.85;;
28960;SDS011;16068;42.896;20.868;2022-11-23T04:04:33;7.55;;;3.00;;
28960;SDS011;16068;42.896;20.868;2022-11-23T04:07:27;8.07;;;2.90;;
28960;SDS011;16068;42.896;20.868;2022-11-23T04:10:17;8.02;;;3.67;;
28960;SDS011;16068;42.896;20.868;2022-11-23T04:13:17;5.78;;;2.90;;
28960;SDS011;16068;42.896;20.868;2022-11-23T04:16:03;10.15;;;3.70;;
28960;SDS011;16068;42.896;20.868;2022-11-23T04:18:51;4.78;;;1.92;;
28960;SDS011;16068;42.896;20.868;2022-11-23T04:21:37;6.90;;;2.20;;
28960;SDS011;16068;42.896;20.868;2022-11-23T04:24:24;7.03;;;2.47;;
28960;SDS011;16068;42.896;20.868;2022-11-23T04:27:12;5.15;;;1.70;;
28960;SDS011;16068;42.896;20.868;2022-11-23T04:30:00;3.00;;;1.48;;
28960;SDS011;16068;42.896;20.868;2022-11-23T04:32:47;6.22;;;1.80;;
28960;SDS011;16068;42.896;20.868;2022-11-23T04:35:34;6.20;;;1.20;;
28960;SDS011;16068;42.896;20.868;2022-11-23T04:38:20;2.50;;;1.20;;
28960;SDS011;16068;42.896;20.868;2022-11-23T04:41:07;4.68;;;1.60;;
28960;SDS011;16068;42.896;20.868;2022-11-23T04:43:53;3.63;;;1.20;;
28960;SDS011;16068;42.896;20.868;2022-11-23T04:46:41;2.78;;;1.10;;
28960;SDS011;16068;42.896;20.868;2022-11-23T04:49:30;2.25;;;1.10;;
28960;SDS011;16068;42.896;20.868;2022-11-23T04:52:17;15.80;;;2.63;;
28960;SDS011;16068;42.896;20.868;2022-11-23T04:55:05;3.17;;;1.50;;
28960;SDS011;16068;42.896;20.868;2022-11-23T04:57:55;5.07;;;1.83;;
28960;SDS011;16068;42.896;20.868;2022-11-23T05:00:43;6.40;;;1.88;;
28960;SDS011;16068;42.896;20.868;2022-11-23T05:03:31;7.43;;;2.88;;
28960;SDS011;16068;42.896;20.868;2022-11-23T05:06:22;5.35;;;2.83;;
28960;SDS011;16068;42.896;20.868;2022-11-23T05:09:08;7.00;;;3.30;;
28960;SDS011;16068;42.896;20.868;2022-11-23T05:12:11;8.82;;;4.30;;
28960;SDS011;16068;42.896;20.868;2022-11-23T05:14:58;19.27;;;8.43;;
28960;SDS011;16068;42.896;20.868;2022-11-23T05:17:51;35.00;;;16.77;;
28960;SDS011;16068;42.896;20.868;2022-11-23T05:20:43;31.25;;;16.92;;
28960;SDS011;16068;42.896;20.868;2022-11-23T05:23:32;27.35;;;14.00;;
28960;SDS011;16068;42.896;20.868;2022-11-23T05:26:18;15.25;;;8.50;;
28960;SDS011;16068;42.896;20.868;2022-11-23T05:29:05;14.77;;;6.53;;
28960;SDS011;16068;42.896;20.868;2022-11-23T05:31:52;18.85;;;6.72;;
28960;SDS011;16068;42.896;20.868;2022-11-23T05:34:39;9.35;;;5.72;;
28960;SDS011;16068;42.896;20.868;2022-11-23T05:37:27;11.30;;;6.07;;
28960;SDS011;16068;42.896;20.868;2022-11-23T05:40:19;6.80;;;4.13;;
28960;SDS011;16068;42.896;20.868;2022-11-23T05:43:08;6.60;;;3.88;;
28960;SDS011;16068;42.896;20.868;2022-11-23T05:45:57;17.25;;;7.70;;
28960;SDS011;16068;42.896;20.868;2022-11-23T05:48:47;23.48;;;10.43;;
28960;SDS011;16068;42.896;20.868;2022-11-23T05:51:33;34.20;;;15.48;;
28960;SDS011;16068;42.896;20.868;2022-11-23T05:54:19;35.63;;;15.75;;
28960;SDS011;16068;42.896;20.868;2022-11-23T05:57:15;44.17;;;18.95;;
28960;SDS011;16068;42.896;20.868;2022-11-23T06:00:03;48.33;;;21.90;;
28960;SDS011;16068;42.896;20.868;2022-11-23T06:03:04;37.92;;;15.35;;
28960;SDS011;16068;42.896;20.868;2022-11-23T06:05:51;18.00;;;9.25;;
28960;SDS011;16068;42.896;20.868;2022-11-23T06:08:44;19.73;;;8.82;;
28960;SDS011;16068;42.896;20.868;2022-11-23T06:11:34;18.77;;;7.47;;
28960;SDS011;16068;42.896;20.868;2022-11-23T06:14:27;9.73;;;5.85;;
28960;SDS011;16068;42.896;20.868;2022-11-23T06:17:13;8.13;;;4.90;;
28960;SDS011;16068;42.896;20.868;2022-11-23T06:20:06;9.57;;;5.10;;
28960;SDS011;16068;42.896;20.868;2022-11-23T06:22:58;10.60;;;5.45;;
28960;SDS011;16068;42.896;20.868;2022-11-23T06:25:45;13.50;;;6.95;;
28960;SDS011;16068;42.896;20.868;2022-11-23T06:28:42;17.17;;;7.70;;
28960;SDS011;16068;42.896;20.868;2022-11-23T06:31:28;9.52;;;5.68;;
28960;SDS011;16068;42.896;20.868;2022-11-23T06:34:14;11.30;;;5.50;;
28960;SDS011;16068;42.896;20.868;2022-11-23T06:37:00;6.82;;;3.95;;
28960;SDS011;16068;42.896;20.868;2022-11-23T06:39:46;7.25;;;3.63;;
28960;SDS011;16068;42.896;20.868;2022-11-23T06:42:33;10.98;;;4.78;;
28960;SDS011;16068;42.896;20.868;2022-11-23T06:45:28;13.77;;;7.18;;
28960;SDS011;16068;42.896;20.868;2022-11-23T06:48:19;16.08;;;8.60;;
28960;SDS011;16068;42.896;20.868;2022-11-23T06:51:05;22.88;;;10.43;;
28960;SDS011;16068;42.896;20.868;2022-11-23T06:53:53;19.63;;;9.65;;
28960;SDS011;16068;42.896;20.868;2022-11-23T06:56:40;17.30;;;8.82;;
28960;SDS011;16068;42.896;20.868;2022-11-23T06:59:27;20.00;;;8.50;;
28960;SDS011;16068;42.896;20.868;2022-11-23T07:02:13;23.08;;;12.30;;
28960;SDS011;16068;42.896;20.868;2022-11-23T07:05:00;18.70;;;10.10;;
28960;SDS011;16068;42.896;20.868;2022-11-23T07:07:47;19.33;;;9.32;;
28960;SDS011;16068;42.896;20.868;2022-11-23T07:10:40;22.05;;;10.82;;
28960;SDS011;16068;42.896;20.868;2022-11-23T07:13:30;17.65;;;9.40;;
28960;SDS011;16068;42.896;20.868;2022-11-23T07:16:15;20.77;;;9.35;;
28960;SDS011;16068;42.896;20.868;2022-11-23T07:19:01;20.80;;;9.07;;
28960;SDS011;16068;42.896;20.868;2022-11-23T07:21:48;19.00;;;9.68;;
28960;SDS011;16068;42.896;20.868;2022-11-23T07:24:35;20.67;;;8.60;;
28960;SDS011;16068;42.896;20.868;2022-11-23T07:27:27;18.85;;;9.57;;
28960;SDS011;16068;42.896;20.868;2022-11-23T07:30:13;18.55;;;9.38;;
28960;SDS011;16068;42.896;20.868;2022-11-23T07:33:01;20.85;;;9.98;;
28960;SDS011;16068;42.896;20.868;2022-11-23T07:35:51;22.48;;;10.70;;
28960;SDS011;16068;42.896;20.868;2022-11-23T07:38:38;19.75;;;9.98;;
28960;SDS011;16068;42.896;20.868;2022-11-23T07:41:24;23.55;;;9.90;;
28960;SDS011;16068;42.896;20.868;2022-11-23T07:44:27;21.35;;;9.60;;
28960;SDS011;16068;42.896;20.868;2022-11-23T07:47:13;20.88;;;10.52;;
28960;SDS011;16068;42.896;20.868;2022-11-23T07:49:59;13.70;;;7.72;;
28960;SDS011;16068;42.896;20.868;2022-11-23T07:52:45;20.90;;;7.15;;
28960;SDS011;16068;42.896;20.868;2022-11-23T07:55:31;17.30;;;9.93;;
28960;SDS011;16068;42.896;20.868;2022-11-23T07:58:18;21.75;;;9.85;;
28960;SDS011;16068;42.896;20.868;2022-11-23T08:01:03;24.48;;;11.38;;
28960;SDS011;16068;42.896;20.868;2022-11-23T08:03:50;23.67;;;10.82;;
28960;SDS011;16068;42.896;20.868;2022-11-23T08:06:35;21.42;;;9.77;;
28960;SDS011;16068;42.896;20.868;2022-11-23T08:09:21;19.35;;;7.78;;
28960;SDS011;16068;42.896;20.868;2022-11-23T08:12:07;12.57;;;7.00;;
28960;SDS011;16068;42.896;20.868;2022-11-23T08:14:53;20.15;;;8.18;;
28960;SDS011;16068;42.896;20.868;2022-11-23T08:17:39;21.50;;;8.80;;
28960;SDS011;16068;42.896;20.868;2022-11-23T08:20:25;17.77;;;7.75;;
28960;SDS011;16068;42.896;20.868;2022-11-23T08:23:12;24.92;;;10.07;;
28960;SDS011;16068;42.896;20.868;2022-11-23T08:25:57;19.33;;;9.23;;
28960;SDS011;16068;42.896;20.868;2022-11-23T08:28:43;24.17;;;11.50;;
28960;SDS011;16068;42.896;20.868;2022-11-23T08:31:29;35.80;;;16.20;;
28960;SDS011;16068;42.896;20.868;2022-11-23T08:34:15;26.77;;;12.10;;
28960;SDS011;16068;42.896;20.868;2022-11-23T08:37:03;39.30;;;16.33;;
28960;SDS011;16068;42.896;20.868;2022-11-23T08:39:48;33.22;;;16.67;;
28960;SDS011;16068;42.896;20.868;2022-11-23T08:42:34;46.20;;;16.75;;
28960;SDS011;16068;42.896;20.868;2022-11-23T08:45:20;35.03;;;16.10;;
28960;SDS011;16068;42.896;20.868;2022-11-23T08:48:06;58.13;;;22.35;;
28960;SDS011;16068;42.896;20.868;2022-11-23T08:50:53;38.13;;;19.30;;
28960;SDS011;16068;42.896;20.868;2022-11-23T08:53:39;45.38;;;21.27;;
28960;SDS011;16068;42.896;20.868;2022-11-23T08:56:25;46.35;;;25.35;;
28960;SDS011;16068;42.896;20.868;2022-11-23T08:59:11;47.83;;;25.92;;
28960;SDS011;16068;42.896;20.868;2022-11-23T09:01:57;51.33;;;25.58;;
28960;SDS011;16068;42.896;20.868;2022-11-23T09:04:43;46.88;;;23.88;;
28960;SDS011;16068;42.896;20.868;2022-11-23T09:07:29;53.45;;;28.02;;
28960;SDS011;16068;42.896;20.868;2022-11-23T09:10:15;47.78;;;24.85;;
28960;SDS011;16068;42.896;20.868;2022-11-23T09:13:03;39.53;;;21.20;;
28960;SDS011;16068;42.896;20.868;2022-11-23T09:15:55;47.55;;;23.27;;
28960;SDS011;16068;42.896;20.868;2022-11-23T09:18:47;33.13;;;18.25;;
28960;SDS011;16068;42.896;20.868;2022-11-23T09:21:34;34.90;;;19.65;;
28960;SDS011;16068;42.896;20.868;2022-11-23T09:24:23;43.85;;;21.48;;
28960;SDS011;16068;42.896;20.868;2022-11-23T09:27:10;49.80;;;27.35;;
28960;SDS011;16068;42.896;20.868;2022-11-23T09:29:56;57.92;;;31.02;;
28960;SDS011;16068;42.896;20.868;2022-11-23T09:32:42;60.83;;;31.50;;
28960;SDS011;16068;42.896;20.868;2022-11-23T09:35:28;44.75;;;23.58;;
28960;SDS011;16068;42.896;20.868;2022-11-23T09:38:14;52.17;;;27.35;;
28960;SDS011;16068;42.896;20.868;2022-11-23T09:50:12;35.55;;;17.45;;
28960;SDS011;16068;42.896;20.868;2022-11-23T09:53:01;37.35;;;19.20;;
28960;SDS011;16068;42.896;20.868;2022-11-23T09:55:50;37.40;;;16.35;;
28960;SDS011;16068;42.896;20.868;2022-11-23T09:58:37;26.10;;;13.77;;
28960;SDS011;16068;42.896;20.868;2022-11-23T10:01:24;30.42;;;15.27;;
28960;SDS011;16068;42.896;20.868;2022-11-23T10:04:14;35.95;;;16.67;;
28960;SDS011;16068;42.896;20.868;2022-11-23T10:13:13;28.42;;;11.73;;
28960;SDS011;16068;42.896;20.868;2022-11-23T10:25:16;27.88;;;10.95;;
28960;SDS011;16068;42.896;20.868;2022-11-23T10:28:11;23.15;;;9.32;;
28960;SDS011;16068;42.896;20.868;2022-11-23T10:31:20;16.95;;;8.57;;
28960;SDS011;16068;42.896;20.868;2022-11-23T10:34:11;14.45;;;6.03;;
28960;SDS011;16068;42.896;20.868;2022-11-23T10:36:59;10.45;;;4.93;;
28960;SDS011;16068;42.896;20.868;2022-11-23T10:39:45;20.20;;;8.73;;
28960;SDS011;16068;42.896;20.868;2022-11-23T10:42:37;22.70;;;9.52;;
28960;SDS011;16068;42.896;20.868;2022-11-23T10:52:01;21.45;;;6.03;;
28960;SDS011;16068;42.896;20.868;2022-11-23T10:54:53;23.20;;;7.15;;
28960;SDS011;16068;42.896;20.868;2022-11-23T10:57:41;14.98;;;6.97;;
28960;SDS011;16068;42.896;20.868;2022-11-23T11:00:29;16.85;;;9.02;;
28960;SDS011;16068;42.896;20.868;2022-11-23T11:03:22;17.35;;;8.55;;
28960;SDS011;16068;42.896;20.868;2022-11-23T11:06:09;52.33;;;22.73;;
28960;SDS011;16068;42.896;20.868;2022-11-23T11:08:57;20.77;;;7.75;;
28960;SDS011;16068;42.896;20.868;2022-11-23T11:11:48;16.65;;;7.40;;
28960;SDS011;16068;42.896;20.868;2022-11-23T11:14:37;22.95;;;9.57;;
28960;SDS011;16068;42.896;20.868;2022-11-23T11:17:32;17.17;;;8.02;;
28960;SDS011;16068;42.896;20.868;2022-11-23T11:20:29;13.50;;;7.03;;
28960;SDS011;16068;42.896;20.868;2022-11-23T11:23:18;13.20;;;5.85;;
28960;SDS011;16068;42.896;20.868;2022-11-23T11:26:08;9.57;;;4.45;;
28960;SDS011;16068;42.896;20.868;2022-11-23T11:29:02;13.18;;;6.13;;
28960;SDS011;16068;42.896;20.868;2022-11-23T11:31:51;43.38;;;8.10;;
28960;SDS011;16068;42.896;20.868;2022-11-23T11:34:46;27.60;;;14.75;;
28960;SDS011;16068;42.896;20.868;2022-11-23T11:40:49;22.85;;;7.90;;
28960;SDS011;16068;42.896;20.868;2022-11-23T11:46:30;20.67;;;10.15;;
28960;SDS011;16068;42.896;20.868;2022-11-23T11:49:22;18.02;;;7.88;;
28960;SDS011;16068;42.896;20.868;2022-11-23T11:52:13;21.20;;;8.27;;
28960;SDS011;16068;42.896;20.868;2022-11-23T11:55:09;20.00;;;9.25;;
28960;SDS011;16068;42.896;20.868;2022-11-23T11:58:01;34.95;;;9.40;;
28960;SDS011;16068;42.896;20.868;2022-11-23T12:00:49;17.20;;;8.77;;
28960;SDS011;16068;42.896;20.868;2022-11-23T12:06:39;21.80;;;9.93;;
28960;SDS011;16068;42.896;20.868;2022-11-23T12:09:32;21.42;;;9.50;;
28960;SDS011;16068;42.896;20.868;2022-11-23T12:12:21;18.63;;;9.30;;
28960;SDS011;16068;42.896;20.868;2022-11-23T12:15:19;19.17;;;10.90;;
28960;SDS011;16068;42.896;20.868;2022-11-23T12:27:50;23.40;;;10.63;;
28960;SDS011;16068;42.896;20.868;2022-11-23T12:34:11;20.42;;;8.35;;
28960;SDS011;16068;42.896;20.868;2022-11-23T12:37:02;19.02;;;7.68;;
28960;SDS011;16068;42.896;20.868;2022-11-23T12:43:53;13.25;;;6.55;;
28960;SDS011;16068;42.896;20.868;2022-11-23T12:57:17;13.25;;;5.57;;
28960;SDS011;16068;42.896;20.868;2022-11-23T12:59:52;16.42;;;6.95;;
28960;SDS011;16068;42.896;20.868;2022-11-23T13:11:54;19.98;;;9.15;;
28960;SDS011;16068;42.896;20.868;2022-11-23T13:15:22;17.77;;;8.18;;
28960;SDS011;16068;42.896;20.868;2022-11-23T13:21:47;16.67;;;9.75;;
28960;SDS011;16068;42.896;20.868;2022-11-23T13:24:33;17.38;;;8.75;;
28960;SDS011;16068;42.896;20.868;2022-11-23T13:33:39;25.60;;;11.90;;
28960;SDS011;16068;42.896;20.868;2022-11-23T13:42:43;24.88;;;13.40;;
28960;SDS011;16068;42.896;20.868;2022-11-23T13:45:32;25.98;;;11.18;;
28960;SDS011;16068;42.896;20.868;2022-11-23T13:48:21;44.95;;;29.17;;
28960;SDS011;16068;42.896;20.868;2022-11-23T13:51:28;25.30;;;14.57;;
28960;SDS011;16068;42.896;20.868;2022-11-23T13:54:19;48.13;;;23.98;;
28960;SDS011;16068;42.896;20.868;2022-11-23T13:57:09;45.97;;;25.95;;
28960;SDS011;16068;42.896;20.868;2022-11-23T14:12:20;136.75;;;76.53;;
28960;SDS011;16068;42.896;20.868;2022-11-23T14:15:22;53.67;;;25.00;;
28960;SDS011;16068;42.896;20.868;2022-11-23T14:21:12;27.98;;;12.27;;
28960;SDS011;16068;42.896;20.868;2022-11-23T14:24:19;23.33;;;12.13;;
28960;SDS011;16068;42.896;20.868;2022-11-23T14:27:25;23.35;;;8.70;;
28960;SDS011;16068;42.896;20.868;2022-11-23T14:31:18;11.57;;;6.50;;
28960;SDS011;16068;42.896;20.868;2022-11-23T14:36:48;18.60;;;6.45;;
28960;SDS011;16068;42.896;20.868;2022-11-23T14:42:41;20.20;;;6.35;;
28960;SDS011;16068;42.896;20.868;2022-11-23T14:45:30;24.83;;;7.80;;
28960;SDS011;16068;42.896;20.868;2022-11-23T14:51:15;14.32;;;5.88;;
28960;SDS011;16068;42.896;20.868;2022-11-23T14:54:07;13.52;;;6.45;;
28960;SDS011;16068;42.896;20.868;2022-11-23T14:56:55;17.23;;;5.70;;
28960;SDS011;16068;42.896;20.868;2022-11-23T14:59:46;20.15;;;7.68;;
28960;SDS011;16068;42.896;20.868;2022-11-23T15:02:38;19.85;;;8.85;;
28960;SDS011;16068;42.896;20.868;2022-11-23T15:05:27;28.10;;;15.35;;
28960;SDS011;16068;42.896;20.868;2022-11-23T15:11:07;56.28;;;18.70;;
28960;SDS011;16068;42.896;20.868;2022-11-23T15:14:02;65.72;;;20.85;;
28960;SDS011;16068;42.896;20.868;2022-11-23T15:16:49;46.88;;;18.33;;
28960;SDS011;16068;42.896;20.868;2022-11-23T15:19:35;40.08;;;20.75;;
28960;SDS011;16068;42.896;20.868;2022-11-23T15:22:23;48.35;;;22.10;;
28960;SDS011;16068;42.896;20.868;2022-11-23T15:25:12;44.38;;;20.48;;
28960;SDS011;16068;42.896;20.868;2022-11-23T15:28:00;44.38;;;18.17;;
28960;SDS011;16068;42.896;20.868;2022-11-23T15:30:48;36.45;;;16.67;;
28960;SDS011;16068;42.896;20.868;2022-11-23T15:33:46;30.77;;;15.10;;
28960;SDS011;16068;42.896;20.868;2022-11-23T15:36:33;26.30;;;13.63;;
28960;SDS011;16068;42.896;20.868;2022-11-23T15:39:26;24.52;;;11.88;;
28960;SDS011;16068;42.896;20.868;2022-11-23T15:42:14;34.17;;;14.70;;
28960;SDS011;16068;42.896;20.868;2022-11-23T15:45:02;48.42;;;25.88;;
28960;SDS011;16068;42.896;20.868;2022-11-23T15:47:48;31.55;;;17.88;;
28960;SDS011;16068;42.896;20.868;2022-11-23T15:50:35;44.38;;;24.75;;
28960;SDS011;16068;42.896;20.868;2022-11-23T15:53:36;58.95;;;31.60;;
28960;SDS011;16068;42.896;20.868;2022-11-23T15:56:32;58.47;;;32.08;;
28960;SDS011;16068;42.896;20.868;2022-11-23T16:02:18;47.45;;;26.05;;
28960;SDS011;16068;42.896;20.868;2022-11-23T16:05:17;69.80;;;36.50;;
28960;SDS011;16068;42.896;20.868;2022-11-23T16:08:21;50.03;;;26.77;;
28960;SDS011;16068;42.896;20.868;2022-11-23T16:11:22;65.05;;;35.67;;
28960;SDS011;16068;42.896;20.868;2022-11-23T16:14:25;55.53;;;28.92;;
28960;SDS011;16068;42.896;20.868;2022-11-23T16:20:11;31.00;;;15.32;;
28960;SDS011;16068;42.896;20.868;2022-11-23T16:22:59;53.05;;;24.35;;
28960;SDS011;16068;42.896;20.868;2022-11-23T16:25:51;44.50;;;22.13;;
28960;SDS011;16068;42.896;20.868;2022-11-23T16:28:50;40.58;;;18.85;;
28960;SDS011;16068;42.896;20.868;2022-11-23T16:31:39;46.38;;;19.17;;
28960;SDS011;16068;42.896;20.868;2022-11-23T16:34:26;46.90;;;20.05;;
28960;SDS011;16068;42.896;20.868;2022-11-23T16:37:13;59.72;;;24.33;;
28960;SDS011;16068;42.896;20.868;2022-11-23T16:39:59;47.20;;;19.65;;
28960;SDS011;16068;42.896;20.868;2022-11-23T16:42:47;70.70;;;35.38;;
28960;SDS011;16068;42.896;20.868;2022-11-23T16:45:37;53.20;;;28.08;;
28960;SDS011;16068;42.896;20.868;2022-11-23T16:51:10;46.20;;;22.33;;
28960;SDS011;16068;42.896;20.868;2022-11-23T16:53:58;37.17;;;18.17;;
28960;SDS011;16068;42.896;20.868;2022-11-23T16:57:05;39.13;;;19.33;;
28960;SDS011;16068;42.896;20.868;2022-11-23T16:59:51;36.45;;;17.75;;
28960;SDS011;16068;42.896;20.868;2022-11-23T17:02:37;55.10;;;28.13;;
28960;SDS011;16068;42.896;20.868;2022-11-23T17:05:23;53.00;;;23.80;;
28960;SDS011;16068;42.896;20.868;2022-11-23T17:08:09;44.25;;;21.38;;
28960;SDS011;16068;42.896;20.868;2022-11-23T17:10:55;40.90;;;21.45;;
28960;SDS011;16068;42.896;20.868;2022-11-23T17:13:41;44.22;;;22.90;;
28960;SDS011;16068;42.896;20.868;2022-11-23T17:16:28;47.13;;;23.25;;
28960;SDS011;16068;42.896;20.868;2022-11-23T17:19:15;40.80;;;22.73;;
28960;SDS011;16068;42.896;20.868;2022-11-23T17:22:02;53.80;;;23.75;;
28960;SDS011;16068;42.896;20.868;2022-11-23T17:24:48;42.35;;;21.77;;
28960;SDS011;16068;42.896;20.868;2022-11-23T17:27:34;48.83;;;22.52;;
28960;SDS011;16068;42.896;20.868;2022-11-23T17:30:22;40.47;;;20.83;;
28960;SDS011;16068;42.896;20.868;2022-11-23T17:33:11;50.30;;;25.38;;
28960;SDS011;16068;42.896;20.868;2022-11-23T17:35:57;110.93;;;61.47;;
28960;SDS011;16068;42.896;20.868;2022-11-23T17:38:44;119.95;;;69.35;;
28960;SDS011;16068;42.896;20.868;2022-11-23T17:41:31;133.30;;;72.88;;
28960;SDS011;16068;42.896;20.868;2022-11-23T17:44:17;150.60;;;85.72;;
28960;SDS011;16068;42.896;20.868;2022-11-23T17:47:04;121.05;;;68.75;;
28960;SDS011;16068;42.896;20.868;2022-11-23T17:49:50;190.68;;;110.22;;
28960;SDS011;16068;42.896;20.868;2022-11-23T17:52:36;155.93;;;87.18;;
28960;SDS011;16068;42.896;20.868;2022-11-23T17:55:24;92.22;;;49.38;;
28960;SDS011;16068;42.896;20.868;2022-11-23T17:58:11;58.25;;;32.03;;
28960;SDS011;16068;42.896;20.868;2022-11-23T18:00:57;57.35;;;29.42;;
28960;SDS011;16068;42.896;20.868;2022-11-23T18:03:44;49.05;;;26.80;;
28960;SDS011;16068;42.896;20.868;2022-11-23T18:06:30;56.05;;;28.15;;
28960;SDS011;16068;42.896;20.868;2022-11-23T18:09:17;46.08;;;24.55;;
28960;SDS011;16068;42.896;20.868;2022-11-23T18:12:02;43.00;;;22.10;;
28960;SDS011;16068;42.896;20.868;2022-11-23T18:14:48;24.88;;;13.35;;
28960;SDS011;16068;42.896;20.868;2022-11-23T18:17:35;30.48;;;14.00;;
28960;SDS011;16068;42.896;20.868;2022-11-23T18:20:21;29.25;;;15.80;;
28960;SDS011;16068;42.896;20.868;2022-11-23T18:23:07;41.53;;;20.30;;
28960;SDS011;16068;42.896;20.868;2022-11-23T18:26:00;67.10;;;22.63;;
28960;SDS011;16068;42.896;20.868;2022-11-23T18:28:51;78.97;;;24.15;;
28960;SDS011;16068;42.896;20.868;2022-11-23T18:31:38;48.67;;;19.13;;
28960;SDS011;16068;42.896;20.868;2022-11-23T18:34:24;40.53;;;17.13;;
28960;SDS011;16068;42.896;20.868;2022-11-23T18:37:09;37.00;;;19.80;;
28960;SDS011;16068;42.896;20.868;2022-11-23T18:39:55;50.88;;;23.23;;
28960;SDS011;16068;42.896;20.868;2022-11-23T18:42:41;37.13;;;18.92;;
28960;SDS011;16068;42.896;20.868;2022-11-23T18:45:27;39.00;;;16.38;;
28960;SDS011;16068;42.896;20.868;2022-11-23T18:48:13;31.80;;;15.43;;